sensor_id;sensor_type;location;lat;lon;timestamp;P1;durP1;ratioP1;P2;durP2;ratioP2
4694;SDS011;2361;49.540;8.390;2022-10-04T00:07:21;6.03;;;4.23;;
4694;SDS011;2361;49.540;8.390;2022-10-04T00:09:51;9.77;;;4.20;;
4694;SDS011;2361;49.540;8.390;2022-10-04T00:12:39;5.40;;;4.10;;
4694;SDS011;2361;49.540;8.390;2022-10-04T00:15:22;11.07;;;4.40;;
4694;SDS011;2361;49.540;8.390;2022-10-04T00:18:04;7.20;;;4.87;;
4694;SDS011;2361;49.540;8.390;2022-10-04T00:26:04;7.10;;;4.67;;
4694;SDS011;2361;49.540;8.390;2022-10-04T00:28:51;7.73;;;4.90;;
4694;SDS011;2361;49.540;8.390;2022-10-04T00:31:22;10.40;;;5.70;;
4694;SDS011;2361;49.540;8.390;2022-10-04T00:36:44;8.50;;;4.10;;
4694;SDS011;2361;49.540;8.390;2022-10-04T00:42:05;8.80;;;3.00;;
4694;SDS011;2361;49.540;8.390;2022-10-04T00:44:53;5.50;;;3.13;;
4694;SDS011;2361;49.540;8.390;2022-10-04T00:50:24;8.10;;;4.53;;
4694;SDS011;2361;49.540;8.390;2022-10-04T00:53:10;7.00;;;3.63;;
4694;SDS011;2361;49.540;8.390;2022-10-04T00:55:58;6.30;;;3.93;;
4694;SDS011;2361;49.540;8.390;2022-10-04T00:58:31;6.30;;;3.80;;
4694;SDS011;2361;49.540;8.390;2022-10-04T01:01:32;7.23;;;4.50;;
4694;SDS011;2361;49.540;8.390;2022-10-04T01:04:03;4.20;;;3.53;;
4694;SDS011;2361;49.540;8.390;2022-10-04T01:06:46;6.27;;;4.60;;
4694;SDS011;2361;49.540;8.390;2022-10-04T01:09:13;10.10;;;4.70;;
4694;SDS011;2361;49.540;8.390;2022-10-04T01:11:44;6.30;;;4.20;;
4694;SDS011;2361;49.540;8.390;2022-10-04T01:14:30;6.73;;;4.10;;
4694;SDS011;2361;49.540;8.390;2022-10-04T01:17:12;9.10;;;4.17;;
4694;SDS011;2361;49.540;8.390;2022-10-04T01:19:48;8.27;;;4.13;;
4694;SDS011;2361;49.540;8.390;2022-10-04T01:22:31;6.20;;;4.27;;
4694;SDS011;2361;49.540;8.390;2022-10-04T01:25:01;5.90;;;4.17;;
4694;SDS011;2361;49.540;8.390;2022-10-04T01:30:06;6.20;;;4.27;;
4694;SDS011;2361;49.540;8.390;2022-10-04T01:32:38;8.00;;;4.07;;
4694;SDS011;2361;49.540;8.390;2022-10-04T01:35:06;6.27;;;4.13;;
4694;SDS011;2361;49.540;8.390;2022-10-04T01:37:35;8.00;;;5.17;;
4694;SDS011;2361;49.540;8.390;2022-10-04T01:40:05;16.43;;;4.80;;
4694;SDS011;2361;49.540;8.390;2022-10-04T01:47:57;6.70;;;4.27;;
4694;SDS011;2361;49.540;8.390;2022-10-04T01:50:42;8.90;;;5.33;;
4694;SDS011;2361;49.540;8.390;2022-10-04T01:53:26;8.93;;;5.20;;
4694;SDS011;2361;49.540;8.390;2022-10-04T01:56:07;6.57;;;4.37;;
4694;SDS011;2361;49.540;8.390;2022-10-04T01:58:45;4.97;;;3.70;;
4694;SDS011;2361;49.540;8.390;2022-10-04T02:01:24;9.03;;;5.20;;
4694;SDS011;2361;49.540;8.390;2022-10-04T02:04:10;7.60;;;5.00;;
4694;SDS011;2361;49.540;8.390;2022-10-04T02:06:48;6.97;;;4.10;;
4694;SDS011;2361;49.540;8.390;2022-10-04T02:09:22;8.23;;;4.60;;
4694;SDS011;2361;49.540;8.390;2022-10-04T02:11:57;7.77;;;4.27;;
4694;SDS011;2361;49.540;8.390;2022-10-04T02:14:26;9.83;;;5.10;;
4694;SDS011;2361;49.540;8.390;2022-10-04T02:16:59;7.50;;;4.27;;
4694;SDS011;2361;49.540;8.390;2022-10-04T02:19:33;6.77;;;4.50;;
4694;SDS011;2361;49.540;8.390;2022-10-04T02:22:06;8.47;;;4.77;;
4694;SDS011;2361;49.540;8.390;2022-10-04T02:24:36;4.70;;;3.70;;
4694;SDS011;2361;49.540;8.390;2022-10-04T02:27:07;5.23;;;3.57;;
4694;SDS011;2361;49.540;8.390;2022-10-04T02:29:34;3.90;;;2.97;;
4694;SDS011;2361;49.540;8.390;2022-10-04T02:32:05;5.47;;;3.30;;
4694;SDS011;2361;49.540;8.390;2022-10-04T02:34:54;5.07;;;3.57;;
4694;SDS011;2361;49.540;8.390;2022-10-04T02:37:22;5.33;;;3.33;;
4694;SDS011;2361;49.540;8.390;2022-10-04T02:39:54;5.43;;;3.50;;
4694;SDS011;2361;49.540;8.390;2022-10-04T02:42:45;6.67;;;4.60;;
4694;SDS011;2361;49.540;8.390;2022-10-04T02:48:18;6.20;;;4.00;;
4694;SDS011;2361;49.540;8.390;2022-10-04T02:51:05;5.83;;;3.70;;
4694;SDS011;2361;49.540;8.390;2022-10-04T02:54:03;5.17;;;3.77;;
4694;SDS011;2361;49.540;8.390;2022-10-04T02:56:32;4.93;;;3.53;;
4694;SDS011;2361;49.540;8.390;2022-10-04T02:59:01;7.10;;;4.37;;
4694;SDS011;2361;49.540;8.390;2022-10-04T03:04:29;10.40;;;4.77;;
4694;SDS011;2361;49.540;8.390;2022-10-04T03:07:04;6.57;;;4.00;;
4694;SDS011;2361;49.540;8.390;2022-10-04T03:09:33;4.73;;;3.73;;
4694;SDS011;2361;49.540;8.390;2022-10-04T03:12:02;8.20;;;4.00;;
4694;SDS011;2361;49.540;8.390;2022-10-04T03:14:31;6.70;;;4.13;;
4694;SDS011;2361;49.540;8.390;2022-10-04T03:17:00;6.87;;;3.50;;
4694;SDS011;2361;49.540;8.390;2022-10-04T03:19:29;3.83;;;3.37;;
4694;SDS011;2361;49.540;8.390;2022-10-04T03:21:58;4.80;;;3.53;;
4694;SDS011;2361;49.540;8.390;2022-10-04T03:24:33;4.93;;;3.63;;
4694;SDS011;2361;49.540;8.390;2022-10-04T03:27:08;4.40;;;3.30;;
4694;SDS011;2361;49.540;8.390;2022-10-04T03:29:44;4.83;;;3.67;;
4694;SDS011;2361;49.540;8.390;2022-10-04T03:32:12;5.63;;;4.17;;
4694;SDS011;2361;49.540;8.390;2022-10-04T03:34:46;5.80;;;3.67;;
4694;SDS011;2361;49.540;8.390;2022-10-04T03:37:22;4.67;;;3.60;;
4694;SDS011;2361;49.540;8.390;2022-10-04T03:39:51;4.10;;;3.40;;
4694;SDS011;2361;49.540;8.390;2022-10-04T03:42:21;3.83;;;3.53;;
4694;SDS011;2361;49.540;8.390;2022-10-04T03:44:56;4.03;;;3.30;;
4694;SDS011;2361;49.540;8.390;2022-10-04T03:47:29;3.50;;;3.20;;
4694;SDS011;2361;49.540;8.390;2022-10-04T03:50:17;3.50;;;3.00;;
4694;SDS011;2361;49.540;8.390;2022-10-04T03:52:58;3.83;;;3.50;;
4694;SDS011;2361;49.540;8.390;2022-10-04T03:55:34;4.33;;;3.07;;
4694;SDS011;2361;49.540;8.390;2022-10-04T03:58:05;4.30;;;3.87;;
4694;SDS011;2361;49.540;8.390;2022-10-04T04:00:37;5.07;;;3.53;;
4694;SDS011;2361;49.540;8.390;2022-10-04T04:03:14;4.83;;;3.63;;
4694;SDS011;2361;49.540;8.390;2022-10-04T04:05:48;4.83;;;4.20;;
4694;SDS011;2361;49.540;8.390;2022-10-04T04:08:23;5.77;;;4.30;;
4694;SDS011;2361;49.540;8.390;2022-10-04T04:10:57;6.47;;;4.73;;
4694;SDS011;2361;49.540;8.390;2022-10-04T04:16:19;6.50;;;4.20;;
4694;SDS011;2361;49.540;8.390;2022-10-04T04:18:52;6.70;;;4.20;;
4694;SDS011;2361;49.540;8.390;2022-10-04T04:21:20;7.00;;;4.30;;
4694;SDS011;2361;49.540;8.390;2022-10-04T04:23:58;5.37;;;3.90;;
4694;SDS011;2361;49.540;8.390;2022-10-04T04:26:37;4.40;;;3.70;;
4694;SDS011;2361;49.540;8.390;2022-10-04T04:29:21;3.90;;;3.50;;
4694;SDS011;2361;49.540;8.390;2022-10-04T04:32:17;5.37;;;3.83;;
4694;SDS011;2361;49.540;8.390;2022-10-04T04:35:02;6.70;;;4.07;;
4694;SDS011;2361;49.540;8.390;2022-10-04T04:37:35;9.80;;;4.40;;
4694;SDS011;2361;49.540;8.390;2022-10-04T04:40:37;5.17;;;4.20;;
4694;SDS011;2361;49.540;8.390;2022-10-04T04:42:58;5.77;;;3.93;;
4694;SDS011;2361;49.540;8.390;2022-10-04T04:45:28;9.00;;;5.00;;
4694;SDS011;2361;49.540;8.390;2022-10-04T04:47:58;6.67;;;4.13;;
4694;SDS011;2361;49.540;8.390;2022-10-04T04:50:31;8.30;;;4.93;;
4694;SDS011;2361;49.540;8.390;2022-10-04T04:53:04;5.77;;;4.00;;
4694;SDS011;2361;49.540;8.390;2022-10-04T04:55:48;4.50;;;3.17;;
4694;SDS011;2361;49.540;8.390;2022-10-04T04:58:31;6.30;;;4.27;;
4694;SDS011;2361;49.540;8.390;2022-10-04T05:03:43;5.90;;;3.80;;
4694;SDS011;2361;49.540;8.390;2022-10-04T05:06:44;5.17;;;3.80;;
4694;SDS011;2361;49.540;8.390;2022-10-04T05:09:29;7.37;;;4.07;;
4694;SDS011;2361;49.540;8.390;2022-10-04T05:14:46;11.47;;;4.90;;
4694;SDS011;2361;49.540;8.390;2022-10-04T05:17:18;7.30;;;4.30;;
4694;SDS011;2361;49.540;8.390;2022-10-04T05:19:48;5.30;;;3.50;;
4694;SDS011;2361;49.540;8.390;2022-10-04T05:22:18;4.90;;;3.53;;
4694;SDS011;2361;49.540;8.390;2022-10-04T05:24:50;5.43;;;3.70;;
4694;SDS011;2361;49.540;8.390;2022-10-04T05:27:23;4.80;;;3.10;;
4694;SDS011;2361;49.540;8.390;2022-10-04T05:30:11;3.50;;;3.20;;
4694;SDS011;2361;49.540;8.390;2022-10-04T05:38:59;4.67;;;2.87;;
4694;SDS011;2361;49.540;8.390;2022-10-04T05:44:29;3.67;;;3.37;;
4694;SDS011;2361;49.540;8.390;2022-10-04T05:47:04;5.23;;;3.03;;
4694;SDS011;2361;49.540;8.390;2022-10-04T05:49:33;4.97;;;3.70;;
4694;SDS011;2361;49.540;8.390;2022-10-04T05:52:15;4.30;;;3.13;;
4694;SDS011;2361;49.540;8.390;2022-10-04T06:00:40;5.27;;;4.17;;
4694;SDS011;2361;49.540;8.390;2022-10-04T06:20:58;8.90;;;5.10;;
4694;SDS011;2361;49.540;8.390;2022-10-04T06:26:38;5.13;;;3.73;;
4694;SDS011;2361;49.540;8.390;2022-10-04T06:29:41;7.67;;;4.50;;
4694;SDS011;2361;49.540;8.390;2022-10-04T06:38:26;10.50;;;6.30;;
4694;SDS011;2361;49.540;8.390;2022-10-04T06:49:27;7.70;;;3.30;;
4694;SDS011;2361;49.540;8.390;2022-10-04T06:54:55;8.37;;;4.93;;
4694;SDS011;2361;49.540;8.390;2022-10-04T07:00:40;11.77;;;5.73;;
4694;SDS011;2361;49.540;8.390;2022-10-04T07:03:23;11.07;;;5.50;;
4694;SDS011;2361;49.540;8.390;2022-10-04T07:06:07;7.60;;;4.40;;
4694;SDS011;2361;49.540;8.390;2022-10-04T07:13:52;9.37;;;4.70;;
4694;SDS011;2361;49.540;8.390;2022-10-04T07:27:16;11.90;;;5.80;;
4694;SDS011;2361;49.540;8.390;2022-10-04T07:29:57;9.17;;;5.37;;
4694;SDS011;2361;49.540;8.390;2022-10-04T07:32:30;14.07;;;6.37;;
4694;SDS011;2361;49.540;8.390;2022-10-04T07:35:03;13.97;;;7.43;;
4694;SDS011;2361;49.540;8.390;2022-10-04T07:37:42;18.60;;;9.63;;
4694;SDS011;2361;49.540;8.390;2022-10-04T07:40:36;14.90;;;7.90;;
4694;SDS011;2361;49.540;8.390;2022-10-04T07:43:09;17.70;;;8.40;;
4694;SDS011;2361;49.540;8.390;2022-10-04T07:46:00;12.70;;;6.70;;
4694;SDS011;2361;49.540;8.390;2022-10-04T07:48:40;14.10;;;7.60;;
4694;SDS011;2361;49.540;8.390;2022-10-04T07:51:29;11.33;;;6.60;;
4694;SDS011;2361;49.540;8.390;2022-10-04T07:56:58;9.60;;;5.90;;
4694;SDS011;2361;49.540;8.390;2022-10-04T08:05:21;12.93;;;6.60;;
4694;SDS011;2361;49.540;8.390;2022-10-04T08:11:00;12.13;;;5.67;;
4694;SDS011;2361;49.540;8.390;2022-10-04T08:13:50;15.80;;;6.13;;
4694;SDS011;2361;49.540;8.390;2022-10-04T08:24:34;16.80;;;7.90;;
4694;SDS011;2361;49.540;8.390;2022-10-04T08:31:03;14.27;;;6.60;;
4694;SDS011;2361;49.540;8.390;2022-10-04T08:33:45;17.83;;;7.40;;
4694;SDS011;2361;49.540;8.390;2022-10-04T08:36:51;17.67;;;8.57;;
4694;SDS011;2361;49.540;8.390;2022-10-04T08:39:46;20.07;;;7.67;;
4694;SDS011;2361;49.540;8.390;2022-10-04T08:49:21;13.70;;;6.03;;
4694;SDS011;2361;49.540;8.390;2022-10-04T08:52:05;22.77;;;10.60;;
4694;SDS011;2361;49.540;8.390;2022-10-04T09:01:44;24.97;;;11.17;;
4694;SDS011;2361;49.540;8.390;2022-10-04T09:04:52;28.97;;;12.20;;
4694;SDS011;2361;49.540;8.390;2022-10-04T09:07:46;23.73;;;12.77;;
4694;SDS011;2361;49.540;8.390;2022-10-04T09:49:27;12.20;;;7.17;;
4694;SDS011;2361;49.540;8.390;2022-10-04T10:01:13;8.33;;;6.80;;
4694;SDS011;2361;49.540;8.390;2022-10-04T10:13:21;13.20;;;5.40;;
4694;SDS011;2361;49.540;8.390;2022-10-04T10:19:29;7.43;;;5.40;;
4694;SDS011;2361;49.540;8.390;2022-10-04T10:36:57;5.00;;;4.10;;
4694;SDS011;2361;49.540;8.390;2022-10-04T10:48:56;17.43;;;4.37;;
4694;SDS011;2361;49.540;8.390;2022-10-04T10:54:56;3.27;;;2.97;;
4694;SDS011;2361;49.540;8.390;2022-10-04T10:59:04;6.83;;;4.47;;
4694;SDS011;2361;49.540;8.390;2022-10-04T11:41:31;9.37;;;3.70;;
4694;SDS011;2361;49.540;8.390;2022-10-04T11:47:34;4.50;;;2.90;;
4694;SDS011;2361;49.540;8.390;2022-10-04T11:50:36;5.00;;;2.90;;
4694;SDS011;2361;49.540;8.390;2022-10-04T12:11:53;3.20;;;2.17;;
4694;SDS011;2361;49.540;8.390;2022-10-04T12:53:51;3.00;;;2.53;;
4694;SDS011;2361;49.540;8.390;2022-10-04T12:59:50;2.80;;;2.60;;
4694;SDS011;2361;49.540;8.390;2022-10-04T13:17:22;2.77;;;2.50;;
4694;SDS011;2361;49.540;8.390;2022-10-04T13:26:05;3.03;;;2.67;;
4694;SDS011;2361;49.540;8.390;2022-10-04T13:28:48;2.90;;;2.60;;
4694;SDS011;2361;49.540;8.390;2022-10-04T13:31:48;5.93;;;2.57;;
4694;SDS011;2361;49.540;8.390;2022-10-04T13:34:42;2.57;;;2.37;;
4694;SDS011;2361;49.540;8.390;2022-10-04T13:43:14;3.97;;;2.10;;
4694;SDS011;2361;49.540;8.390;2022-10-04T13:46:20;6.57;;;2.63;;
4694;SDS011;2361;49.540;8.390;2022-10-04T13:53:16;5.63;;;3.07;;
4694;SDS011;2361;49.540;8.390;2022-10-04T14:10:46;2.70;;;2.50;;
4694;SDS011;2361;49.540;8.390;2022-10-04T14:35:02;2.73;;;2.53;;
4694;SDS011;2361;49.540;8.390;2022-10-04T14:37:48;4.93;;;2.70;;
4694;SDS011;2361;49.540;8.390;2022-10-04T14:50:28;2.77;;;2.50;;
4694;SDS011;2361;49.540;8.390;2022-10-04T14:53:27;3.10;;;2.80;;
4694;SDS011;2361;49.540;8.390;2022-10-04T14:56:10;7.93;;;2.80;;
4694;SDS011;2361;49.540;8.390;2022-10-04T15:04:31;2.10;;;1.90;;
4694;SDS011;2361;49.540;8.390;2022-10-04T15:10:12;4.83;;;2.77;;
4694;SDS011;2361;49.540;8.390;2022-10-04T15:12:59;5.00;;;3.20;;
4694;SDS011;2361;49.540;8.390;2022-10-04T15:36:24;4.07;;;2.40;;
4694;SDS011;2361;49.540;8.390;2022-10-04T15:54:31;3.10;;;2.80;;
4694;SDS011;2361;49.540;8.390;2022-10-04T16:06:00;3.63;;;3.33;;
4694;SDS011;2361;49.540;8.390;2022-10-04T16:14:53;4.33;;;3.03;;
4694;SDS011;2361;49.540;8.390;2022-10-04T16:17:52;2.23;;;2.07;;
4694;SDS011;2361;49.540;8.390;2022-10-04T16:34:52;3.87;;;3.50;;
4694;SDS011;2361;49.540;8.390;2022-10-04T16:37:57;3.83;;;2.87;;
4694;SDS011;2361;49.540;8.390;2022-10-04T16:48:37;3.40;;;3.10;;
4694;SDS011;2361;49.540;8.390;2022-10-04T16:54:47;5.23;;;3.97;;
4694;SDS011;2361;49.540;8.390;2022-10-04T16:57:27;5.07;;;3.57;;
4694;SDS011;2361;49.540;8.390;2022-10-04T16:59:58;3.87;;;3.53;;
4694;SDS011;2361;49.540;8.390;2022-10-04T17:03:05;6.07;;;4.10;;
4694;SDS011;2361;49.540;8.390;2022-10-04T17:05:44;5.10;;;4.10;;
4694;SDS011;2361;49.540;8.390;2022-10-04T17:11:44;4.97;;;3.93;;
4694;SDS011;2361;49.540;8.390;2022-10-04T17:29:49;6.80;;;4.33;;
4694;SDS011;2361;49.540;8.390;2022-10-04T17:40:36;8.13;;;4.67;;
4694;SDS011;2361;49.540;8.390;2022-10-04T17:52:33;9.20;;;5.43;;
4694;SDS011;2361;49.540;8.390;2022-10-04T17:55:35;9.63;;;6.30;;
4694;SDS011;2361;49.540;8.390;2022-10-04T17:58:14;5.63;;;4.60;;
4694;SDS011;2361;49.540;8.390;2022-10-04T18:00:52;6.37;;;5.10;;
4694;SDS011;2361;49.540;8.390;2022-10-04T18:09:39;8.70;;;5.40;;
4694;SDS011;2361;49.540;8.390;2022-10-04T18:12:33;8.23;;;5.37;;
4694;SDS011;2361;49.540;8.390;2022-10-04T18:18:26;8.13;;;6.30;;
4694;SDS011;2361;49.540;8.390;2022-10-04T18:20:59;13.20;;;5.73;;
4694;SDS011;2361;49.540;8.390;2022-10-04T18:26:29;10.63;;;6.80;;
4694;SDS011;2361;49.540;8.390;2022-10-04T18:28:59;11.90;;;6.00;;
4694;SDS011;2361;49.540;8.390;2022-10-04T18:31:37;8.13;;;5.60;;
4694;SDS011;2361;49.540;8.390;2022-10-04T18:39:46;11.60;;;7.50;;
4694;SDS011;2361;49.540;8.390;2022-10-04T18:42:26;20.40;;;7.33;;
4694;SDS011;2361;49.540;8.390;2022-10-04T18:45:01;11.83;;;6.70;;
4694;SDS011;2361;49.540;8.390;2022-10-04T18:47:49;8.20;;;5.90;;
4694;SDS011;2361;49.540;8.390;2022-10-04T18:56:11;12.07;;;7.50;;
4694;SDS011;2361;49.540;8.390;2022-10-04T19:04:53;10.53;;;6.20;;
4694;SDS011;2361;49.540;8.390;2022-10-04T19:07:39;10.13;;;6.90;;
4694;SDS011;2361;49.540;8.390;2022-10-04T19:10:50;10.30;;;7.37;;
4694;SDS011;2361;49.540;8.390;2022-10-04T19:13:28;9.97;;;6.90;;
4694;SDS011;2361;49.540;8.390;2022-10-04T19:24:59;15.80;;;7.53;;
4694;SDS011;2361;49.540;8.390;2022-10-04T19:28:33;11.07;;;7.20;;
4694;SDS011;2361;49.540;8.390;2022-10-04T19:31:20;9.87;;;6.93;;
4694;SDS011;2361;49.540;8.390;2022-10-04T19:34:04;17.00;;;7.10;;
4694;SDS011;2361;49.540;8.390;2022-10-04T19:42:59;10.10;;;6.03;;
4694;SDS011;2361;49.540;8.390;2022-10-04T19:45:43;11.50;;;7.20;;
4694;SDS011;2361;49.540;8.390;2022-10-04T19:48:31;11.17;;;6.30;;
4694;SDS011;2361;49.540;8.390;2022-10-04T19:51:42;9.93;;;6.07;;
4694;SDS011;2361;49.540;8.390;2022-10-04T19:54:10;10.57;;;6.73;;
4694;SDS011;2361;49.540;8.390;2022-10-04T19:56:42;8.70;;;6.80;;
4694;SDS011;2361;49.540;8.390;2022-10-04T20:01:51;14.00;;;7.27;;
4694;SDS011;2361;49.540;8.390;2022-10-04T20:04:18;14.40;;;6.77;;
4694;SDS011;2361;49.540;8.390;2022-10-04T20:07:01;10.03;;;6.30;;
4694;SDS011;2361;49.540;8.390;2022-10-04T20:17:43;14.27;;;6.50;;
4694;SDS011;2361;49.540;8.390;2022-10-04T20:20:13;9.03;;;6.80;;
4694;SDS011;2361;49.540;8.390;2022-10-04T20:23:04;9.67;;;6.20;;
4694;SDS011;2361;49.540;8.390;2022-10-04T20:30:52;10.80;;;6.93;;
4694;SDS011;2361;49.540;8.390;2022-10-04T20:46:26;13.03;;;8.27;;
4694;SDS011;2361;49.540;8.390;2022-10-04T20:49:10;12.03;;;7.50;;
4694;SDS011;2361;49.540;8.390;2022-10-04T20:51:50;11.77;;;7.57;;
4694;SDS011;2361;49.540;8.390;2022-10-04T20:54:17;12.50;;;8.00;;
4694;SDS011;2361;49.540;8.390;2022-10-04T20:56:47;12.50;;;7.50;;
4694;SDS011;2361;49.540;8.390;2022-10-04T20:59:16;12.83;;;8.43;;
4694;SDS011;2361;49.540;8.390;2022-10-04T21:01:58;15.00;;;7.70;;
4694;SDS011;2361;49.540;8.390;2022-10-04T21:04:29;15.17;;;7.57;;
4694;SDS011;2361;49.540;8.390;2022-10-04T21:07:08;13.13;;;7.13;;
4694;SDS011;2361;49.540;8.390;2022-10-04T21:09:42;12.63;;;7.07;;
4694;SDS011;2361;49.540;8.390;2022-10-04T21:15:05;10.40;;;7.23;;
4694;SDS011;2361;49.540;8.390;2022-10-04T21:18:04;10.40;;;7.47;;
4694;SDS011;2361;49.540;8.390;2022-10-04T21:20:49;13.00;;;8.10;;
4694;SDS011;2361;49.540;8.390;2022-10-04T21:23:26;12.70;;;8.30;;
4694;SDS011;2361;49.540;8.390;2022-10-04T21:26:16;11.60;;;7.70;;
4694;SDS011;2361;49.540;8.390;2022-10-04T21:28:53;11.43;;;7.07;;
4694;SDS011;2361;49.540;8.390;2022-10-04T21:31:22;12.80;;;7.97;;
4694;SDS011;2361;49.540;8.390;2022-10-04T21:33:50;15.17;;;8.67;;
4694;SDS011;2361;49.540;8.390;2022-10-04T21:36:16;10.87;;;7.53;;
4694;SDS011;2361;49.540;8.390;2022-10-04T21:38:43;14.80;;;7.70;;
4694;SDS011;2361;49.540;8.390;2022-10-04T21:41:10;13.00;;;8.10;;
4694;SDS011;2361;49.540;8.390;2022-10-04T21:43:37;11.40;;;7.90;;
4694;SDS011;2361;49.540;8.390;2022-10-04T21:46:04;10.20;;;6.50;;
4694;SDS011;2361;49.540;8.390;2022-10-04T21:48:31;13.80;;;7.10;;
4694;SDS011;2361;49.540;8.390;2022-10-04T21:50:58;8.40;;;6.20;;
4694;SDS011;2361;49.540;8.390;2022-10-04T21:53:25;10.77;;;5.80;;
4694;SDS011;2361;49.540;8.390;2022-10-04T21:55:51;11.00;;;6.50;;
4694;SDS011;2361;49.540;8.390;2022-10-04T21:58:18;11.30;;;5.90;;
4694;SDS011;2361;49.540;8.390;2022-10-04T22:00:46;15.00;;;5.60;;
4694;SDS011;2361;49.540;8.390;2022-10-04T22:03:13;11.63;;;6.67;;
4694;SDS011;2361;49.540;8.390;2022-10-04T22:05:39;10.07;;;5.93;;
4694;SDS011;2361;49.540;8.390;2022-10-04T22:08:06;10.40;;;6.80;;
4694;SDS011;2361;49.540;8.390;2022-10-04T22:10:33;13.03;;;7.83;;
4694;SDS011;2361;49.540;8.390;2022-10-04T22:13:00;12.77;;;7.20;;
4694;SDS011;2361;49.540;8.390;2022-10-04T22:15:27;14.50;;;5.97;;
4694;SDS011;2361;49.540;8.390;2022-10-04T22:17:54;8.70;;;6.40;;
4694;SDS011;2361;49.540;8.390;2022-10-04T22:20:22;9.07;;;6.30;;
4694;SDS011;2361;49.540;8.390;2022-10-04T22:22:50;11.80;;;6.43;;
4694;SDS011;2361;49.540;8.390;2022-10-04T22:25:19;8.70;;;5.40;;
4694;SDS011;2361;49.540;8.390;2022-10-04T22:27:50;10.47;;;5.63;;
4694;SDS011;2361;49.540;8.390;2022-10-04T22:30:23;12.33;;;5.90;;
4694;SDS011;2361;49.540;8.390;2022-10-04T22:32:56;9.50;;;6.00;;
4694;SDS011;2361;49.540;8.390;2022-10-04T22:35:24;12.00;;;7.30;;
4694;SDS011;2361;49.540;8.390;2022-10-04T22:37:54;12.13;;;6.87;;
4694;SDS011;2361;49.540;8.390;2022-10-04T22:40:22;9.17;;;6.20;;
4694;SDS011;2361;49.540;8.390;2022-10-04T22:42:51;14.67;;;6.87;;
4694;SDS011;2361;49.540;8.390;2022-10-04T22:45:21;10.43;;;6.67;;
4694;SDS011;2361;49.540;8.390;2022-10-04T22:47:51;9.67;;;5.93;;
4694;SDS011;2361;49.540;8.390;2022-10-04T22:52:58;9.47;;;5.77;;
4694;SDS011;2361;49.540;8.390;2022-10-04T22:55:40;8.37;;;6.20;;
4694;SDS011;2361;49.540;8.390;2022-10-04T22:58:10;12.07;;;6.73;;
4694;SDS011;2361;49.540;8.390;2022-10-04T23:00:39;10.00;;;6.57;;
4694;SDS011;2361;49.540;8.390;2022-10-04T23:05:56;7.30;;;4.90;;
4694;SDS011;2361;49.540;8.390;2022-10-04T23:08:24;10.03;;;5.60;;
4694;SDS011;2361;49.540;8.390;2022-10-04T23:10:55;6.90;;;4.43;;
4694;SDS011;2361;49.540;8.390;2022-10-04T23:13:24;8.97;;;4.93;;
4694;SDS011;2361;49.540;8.390;2022-10-04T23:15:53;8.07;;;4.40;;
4694;SDS011;2361;49.540;8.390;2022-10-04T23:18:25;7.03;;;4.10;;
4694;SDS011;2361;49.540;8.390;2022-10-04T23:20:55;8.83;;;4.70;;
4694;SDS011;2361;49.540;8.390;2022-10-04T23:23:25;6.90;;;4.97;;
4694;SDS011;2361;49.540;8.390;2022-10-04T23:25:53;8.33;;;5.33;;
4694;SDS011;2361;49.540;8.390;2022-10-04T23:28:20;10.47;;;5.03;;
4694;SDS011;2361;49.540;8.390;2022-10-04T23:31:12;3.67;;;3.27;;
4694;SDS011;2361;49.540;8.390;2022-10-04T23:33:46;8.47;;;5.37;;
4694;SDS011;2361;49.540;8.390;2022-10-04T23:36:14;12.17;;;5.30;;
4694;SDS011;2361;49.540;8.390;2022-10-04T23:38:46;10.40;;;6.20;;
4694;SDS011;2361;49.540;8.390;2022-10-04T23:41:17;7.23;;;5.00;;
4694;SDS011;2361;49.540;8.390;2022-10-04T23:43:45;3.90;;;3.07;;
4694;SDS011;2361;49.540;8.390;2022-10-04T23:46:15;5.87;;;4.30;;
4694;SDS011;2361;49.540;8.390;2022-10-04T23:48:46;6.97;;;4.93;;
4694;SDS011;2361;49.540;8.390;2022-10-04T23:51:15;9.63;;;4.87;;
4694;SDS011;2361;49.540;8.390;2022-10-04T23:53:45;9.33;;;5.07;;
4694;SDS011;2361;49.540;8.390;2022-10-04T23:56:19;10.90;;;5.60;;
4694;SDS011;2361;49.540;8.390;2022-10-04T23:58:49;8.30;;;5.83;;
